Time;durP1;ratioP1;P1;durP2;ratioP2;P2;SDS_P1;SDS_P2;PMS_P1;PMS_P2;Temp;Humidity;BMP_temperature;BMP_pressure;BME280_temperature;BME280_humidity;BME280_pressure;Samples;Min_cycle;Max_cycle;Signal;HPM_P1;HPM_P2
2021/01/29 00:01:04;;;;;;;1.25;1.00;;;;;;;8.01;100.00;95187.13;5049274;28;20445;-57
2021/01/29 00:03:31;;;;;;;1.40;0.98;;;;;;;8.02;100.00;95183.53;5054854;28;20404;-57
2021/01/29 00:06:02;;;;;;;1.20;1.00;;;;;;;8.05;100.00;95172.72;5047360;28;20454;-52
2021/01/29 00:08:29;;;;;;;1.30;0.90;;;;;;;8.08;100.00;95179.44;5046425;28;20443;-55
2021/01/29 00:10:57;;;;;;;1.55;1.10;;;;;;;8.07;100.00;95173.34;5063865;28;20754;-56
2021/01/29 00:13:25;;;;;;;2.53;1.47;;;;;;;7.88;100.00;95178.06;5044380;28;20415;-58
2021/01/29 00:15:53;;;;;;;1.20;1.10;;;;;;;7.99;100.00;95167.28;5065907;28;20452;-59
2021/01/29 00:18:20;;;;;;;1.88;1.30;;;;;;;8.01;100.00;95173.19;5067281;28;20447;-57
2021/01/29 00:20:48;;;;;;;1.65;1.10;;;;;;;7.98;100.00;95160.38;5061210;28;20513;-58
2021/01/29 00:23:16;;;;;;;1.90;1.40;;;;;;;7.92;100.00;95171.53;5055838;28;20751;-60
2021/01/29 00:25:46;;;;;;;1.75;1.48;;;;;;;7.90;100.00;95161.19;5046916;28;20497;-57
2021/01/29 00:28:14;;;;;;;1.63;1.33;;;;;;;7.99;100.00;95175.97;5065909;28;20525;-61
2021/01/29 00:30:44;;;;;;;1.70;1.45;;;;;;;7.85;100.00;95176.59;5048042;28;20420;-55
2021/01/29 00:33:14;;;;;;;2.13;1.50;;;;;;;7.90;100.00;95155.94;5046872;28;20445;-56
2021/01/29 00:35:42;;;;;;;1.50;1.30;;;;;;;7.96;100.00;95181.53;5064648;28;20499;-58
2021/01/29 00:38:09;;;;;;;2.00;1.20;;;;;;;7.96;100.00;95162.34;5064342;28;20453;-55
2021/01/29 00:40:38;;;;;;;2.57;1.30;;;;;;;8.00;100.00;95168.91;5064298;28;20566;-59
2021/01/29 00:43:06;;;;;;;1.58;1.27;;;;;;;7.97;100.00;95172.69;5066104;28;20469;-54
2021/01/29 00:45:35;;;;;;;1.85;1.30;;;;;;;7.96;100.00;95181.53;5066891;28;20415;-51
2021/01/29 00:48:04;;;;;;;1.98;1.50;;;;;;;8.05;100.00;95182.38;5064240;28;20975;-55
2021/01/29 00:50:31;;;;;;;2.47;1.50;;;;;;;8.02;100.00;95182.72;5058463;28;20548;-51
2021/01/29 00:52:59;;;;;;;1.63;1.33;;;;;;;7.96;100.00;95178.09;5048819;28;20412;-57
2021/01/29 00:55:28;;;;;;;2.90;1.50;;;;;;;7.96;100.00;95180.72;5065391;28;20427;-57
2021/01/29 00:57:59;;;;;;;2.03;1.50;;;;;;;7.95;100.00;95177.28;5066862;28;20417;-55
2021/01/29 01:00:52;;;;;;;1.90;1.50;;;;;;;7.87;100.00;95184.28;5025599;28;20418;-55
2021/01/29 01:03:27;;;;;;;2.65;1.67;;;;;;;7.90;100.00;95189.22;5047126;28;20476;-53
2021/01/29 01:05:54;;;;;;;1.67;1.38;;;;;;;7.93;100.00;95181.03;5046512;28;20412;-55
2021/01/29 01:08:38;;;;;;;1.80;1.33;;;;;;;7.86;100.00;95180.84;5063598;28;20944;-58
2021/01/29 01:11:25;;;;;;;2.47;1.38;;;;;;;7.77;100.00;95180.00;5037750;28;20438;-57
2021/01/29 01:14:08;;;;;;;1.52;1.20;;;;;;;7.89;100.00;95179.72;5061348;28;20498;-58
2021/01/29 01:16:44;;;;;;;1.90;1.40;;;;;;;7.79;100.00;95171.97;5063799;28;20563;-56
2021/01/29 01:19:36;;;;;;;1.85;1.42;;;;;;;7.86;100.00;95167.72;5066077;28;21223;-53
2021/01/29 01:22:07;;;;;;;1.70;1.10;;;;;;;7.85;100.00;95174.78;5063645;28;20559;-56
2021/01/29 01:25:04;;;;;;;2.17;1.20;;;;;;;7.79;100.00;95171.97;5009967;28;20936;-54
2021/01/29 01:27:32;;;;;;;1.63;1.30;;;;;;;7.75;100.00;95166.22;5066029;28;20448;-57
2021/01/29 01:30:35;;;;;;;1.70;1.40;;;;;;;7.72;100.00;95163.91;5021530;28;20422;-57
2021/01/29 01:33:08;;;;;;;1.98;1.40;;;;;;;7.62;100.00;95150.09;5068884;28;20400;-52
2021/01/29 01:35:56;;;;;;;2.10;1.40;;;;;;;7.69;100.00;95150.28;5029458;28;20470;-54
2021/01/29 01:38:33;;;;;;;1.52;1.23;;;;;;;7.66;100.00;95142.75;5061457;28;20780;-57
2021/01/29 01:41:01;;;;;;;2.22;1.35;;;;;;;7.64;100.00;95144.69;5065926;28;20940;-53
2021/01/29 01:43:38;;;;;;;1.90;1.30;;;;;;;7.59;100.00;95143.38;5062164;28;20456;-55
2021/01/29 01:46:24;;;;;;;2.17;1.30;;;;;;;7.63;100.00;95136.00;5065311;28;20777;-51
2021/01/29 01:49:14;;;;;;;1.77;1.50;;;;;;;7.63;100.00;95140.44;5058099;28;20459;-54
2021/01/29 01:51:48;;;;;;;1.80;1.30;;;;;;;7.64;100.00;95139.44;5067309;28;20467;-57
2021/01/29 01:54:21;;;;;;;2.13;1.40;;;;;;;7.67;100.00;95126.81;5063289;28;20547;-58
2021/01/29 01:56:51;;;;;;;3.30;1.40;;;;;;;7.60;100.00;95124.03;5046779;28;20463;-55
2021/01/29 01:59:23;;;;;;;2.00;1.70;;;;;;;7.66;100.00;95125.19;5061321;28;20487;-54
2021/01/29 02:02:10;;;;;;;2.27;1.60;;;;;;;7.65;100.00;95113.06;5063928;28;20470;-58
2021/01/29 02:04:57;;;;;;;2.30;2.10;;;;;;;7.65;100.00;95102.56;5048083;28;20441;-58
2021/01/29 02:07:53;;;;;;;2.70;2.07;;;;;;;7.58;100.00;95086.66;5061564;28;20467;-51
2021/01/29 02:10:50;;;;;;;2.28;2.08;;;;;;;7.60;100.00;95068.09;5009988;28;20415;-55
2021/01/29 02:13:25;;;;;;;2.47;2.10;;;;;;;7.52;100.00;95070.72;5057649;28;20710;-57
2021/01/29 02:16:16;;;;;;;3.88;2.15;;;;;;;7.58;100.00;95059.59;5055126;28;20491;-60
2021/01/29 02:18:56;;;;;;;3.20;2.25;;;;;;;7.48;100.00;95054.47;5050647;28;20484;-53
2021/01/29 02:21:56;;;;;;;2.95;2.10;;;;;;;7.56;100.00;95058.94;5022195;28;20457;-57
2021/01/29 02:25:09;;;;;;;2.42;1.90;;;;;;;7.52;100.00;95060.22;5063618;28;20460;-56
2021/01/29 02:27:54;;;;;;;2.50;2.22;;;;;;;7.59;100.00;95048.13;5061640;28;20510;-55
2021/01/29 02:30:54;;;;;;;2.97;1.90;;;;;;;7.71;100.00;95051.25;5021897;28;20424;-53
2021/01/29 02:33:40;;;;;;;2.10;1.85;;;;;;;7.82;100.00;95040.44;5063601;28;20841;-52
2021/01/29 02:36:29;;;;;;;2.10;1.85;;;;;;;7.87;100.00;95045.22;5062330;28;20434;-55
2021/01/29 02:39:05;;;;;;;3.10;1.95;;;;;;;7.92;100.00;95037.69;5023312;28;20857;-54
2021/01/29 02:42:04;;;;;;;2.40;2.03;;;;;;;7.91;100.00;95031.59;5059002;28;20459;-54
2021/01/29 02:44:56;;;;;;;2.50;2.20;;;;;;;7.86;100.00;95028.66;5021792;28;20470;-57
2021/01/29 02:47:49;;;;;;;3.13;2.10;;;;;;;7.87;100.00;95030.28;5048632;28;20453;-58
2021/01/29 02:50:47;;;;;;;2.50;2.00;;;;;;;7.93;100.00;95016.50;5062679;28;20524;-57
2021/01/29 02:53:40;;;;;;;2.40;1.90;;;;;;;7.99;100.00;95015.84;5065775;28;20428;-56
2021/01/29 02:56:40;;;;;;;2.67;1.73;;;;;;;7.93;100.00;94997.31;5000281;28;20985;-57
2021/01/29 02:59:32;;;;;;;2.20;1.70;;;;;;;7.91;100.00;95005.34;5063997;28;20452;-56
2021/01/29 03:02:20;;;;;;;2.17;1.80;;;;;;;7.90;100.00;94995.84;5062866;28;20475;-56
2021/01/29 03:05:05;;;;;;;1.90;1.70;;;;;;;7.80;100.00;94996.00;5065880;28;20943;-57
2021/01/29 03:07:37;;;;;;;1.83;1.60;;;;;;;7.70;100.00;95003.19;5065654;28;20408;-54
2021/01/29 03:10:32;;;;;;;2.72;1.60;;;;;;;7.74;100.00;95004.53;5047074;28;20395;-56
2021/01/29 03:13:23;;;;;;;2.13;1.73;;;;;;;7.82;100.00;95001.91;5067011;28;20491;-56
2021/01/29 03:16:18;;;;;;;1.75;1.40;;;;;;;7.84;100.00;94997.31;5061427;28;20597;-56
2021/01/29 03:19:10;;;;;;;1.85;1.35;;;;;;;7.89;100.00;94988.94;5065209;28;20568;-57
2021/01/29 03:22:00;;;;;;;2.03;1.23;;;;;;;8.01;100.00;94982.38;5065239;28;20883;-57
2021/01/29 03:24:51;;;;;;;2.27;1.40;;;;;;;8.00;100.00;94970.25;5006140;28;20494;-57
2021/01/29 03:27:40;;;;;;;1.77;1.20;;;;;;;8.04;100.00;94968.91;5054951;28;20501;-58
2021/01/29 03:30:29;;;;;;;1.58;1.10;;;;;;;8.01;100.00;94956.13;5067332;28;20424;-55
2021/01/29 03:33:17;;;;;;;1.38;1.20;;;;;;;8.11;100.00;94952.50;5045493;28;20412;-58
2021/01/29 03:36:06;;;;;;;2.00;1.20;;;;;;;8.05;100.00;94938.22;5066865;28;20427;-58
2021/01/29 03:38:57;;;;;;;2.60;1.20;;;;;;;7.93;100.00;94943.03;5061634;28;20435;-58
2021/01/29 03:42:01;;;;;;;1.55;1.10;;;;;;;7.88;100.00;94941.88;5032271;28;20426;-58
2021/01/29 03:44:50;;;;;;;2.58;1.20;;;;;;;7.83;100.00;94945.81;5064598;28;20505;-58
2021/01/29 03:47:38;;;;;;;3.50;1.30;;;;;;;7.88;100.00;94936.63;5042709;28;20547;-58
2021/01/29 03:50:30;;;;;;;1.55;1.10;;;;;;;7.78;100.00;94944.69;5067257;28;20419;-58
2021/01/29 03:53:43;;;;;;;1.60;1.10;;;;;;;7.81;100.00;94926.81;5025600;28;20515;-58
2021/01/29 03:56:36;;;;;;;2.57;1.30;;;;;;;7.77;100.00;94927.28;5065781;28;20962;-57
2021/01/29 03:59:36;;;;;;;1.73;1.02;;;;;;;7.84;100.00;94929.09;4982522;28;20938;-57
2021/01/29 04:02:27;;;;;;;2.17;0.98;;;;;;;7.92;100.00;94920.38;5065555;28;20489;-56
2021/01/29 04:05:17;;;;;;;2.03;1.10;;;;;;;7.83;100.00;94921.38;5062825;28;20408;-56
2021/01/29 04:08:07;;;;;;;2.08;1.00;;;;;;;7.93;100.00;94919.41;5060146;28;21019;-54
2021/01/29 04:10:55;;;;;;;3.08;1.20;;;;;;;7.92;100.00;94919.56;5066236;28;20518;-57
2021/01/29 04:13:47;;;;;;;2.30;1.00;;;;;;;7.82;100.00;94917.94;5045122;28;20425;-56
2021/01/29 04:16:26;;;;;;;2.08;1.15;;;;;;;7.76;100.00;94915.97;5034249;28;20399;-59
2021/01/29 04:18:55;;;;;;;1.65;0.90;;;;;;;7.74;100.00;94912.72;5069619;28;20547;-58
2021/01/29 04:21:27;;;;;;;2.70;0.90;;;;;;;7.77;100.00;94909.72;5055100;28;20430;-55
2021/01/29 04:23:58;;;;;;;3.30;1.20;;;;;;;7.76;100.00;94899.41;5068125;28;20439;-58
2021/01/29 04:26:32;;;;;;;1.30;0.55;;;;;;;7.81;100.00;94882.19;5067592;28;20954;-54
2021/01/29 04:29:03;;;;;;;1.63;0.80;;;;;;;7.82;100.00;94883.00;5060227;28;20467;-57
2021/01/29 04:31:31;;;;;;;2.05;0.80;;;;;;;7.91;100.00;94873.31;5048805;28;20967;-54
2021/01/29 04:34:02;;;;;;;1.57;0.70;;;;;;;7.92;100.00;94867.91;5065728;28;20459;-58
2021/01/29 04:36:32;;;;;;;1.90;0.80;;;;;;;8.00;100.00;94865.25;5048097;28;20782;-55
2021/01/29 04:39:03;;;;;;;1.05;0.90;;;;;;;8.04;100.00;94857.84;5065800;28;20939;-57
2021/01/29 04:41:49;;;;;;;1.63;0.90;;;;;;;8.05;100.00;94855.06;5063492;28;20501;-58
2021/01/29 04:44:27;;;;;;;1.90;0.90;;;;;;;8.05;100.00;94851.59;5046296;28;20435;-53
2021/01/29 04:47:08;;;;;;;1.25;0.85;;;;;;;8.42;100.00;94851.00;5046634;28;20818;-57
2021/01/29 04:49:49;;;;;;;2.05;1.00;;;;;;;8.21;100.00;94854.19;5064293;28;20518;-55
2021/01/29 04:52:47;;;;;;;2.92;1.10;;;;;;;8.08;100.00;94856.53;5072258;23;20436;-46
2021/01/29 04:55:45;;;;;;;1.88;0.98;;;;;;;7.84;100.00;94847.75;5063730;28;20465;-47
2021/01/29 04:58:14;;;;;;;2.50;1.05;;;;;;;7.85;100.00;94853.81;5073841;28;20946;-45
2021/01/29 05:01:22;;;;;;;2.05;1.10;;;;;;;7.85;100.00;94856.44;5073021;28;20478;-48
2021/01/29 05:04:41;;;;;;;1.80;0.90;;;;;;;8.05;100.00;94846.34;5053548;28;20447;-45
2021/01/29 05:07:49;;;;;;;0.90;0.70;;;;;;;7.98;100.00;94837.53;5064223;28;20993;-48
2021/01/29 05:11:15;;;;;;;2.47;0.70;;;;;;;7.98;100.00;94829.66;5021575;28;20410;-46
2021/01/29 05:14:23;;;;;;;2.30;0.70;;;;;;;7.98;100.00;94838.38;5063908;28;20975;-48
2021/01/29 05:17:18;;;;;;;1.00;0.43;;;;;;;7.99;100.00;94829.50;5057363;28;20451;-51
2021/01/29 05:20:05;;;;;;;1.67;0.43;;;;;;;8.09;100.00;94819.63;5063641;28;20468;-49
2021/01/29 05:22:41;;;;;;;0.50;0.30;;;;;;;8.12;100.00;94828.97;5062632;28;20415;-47
2021/01/29 05:25:41;;;;;;;0.80;0.20;;;;;;;8.07;100.00;94807.66;5064632;28;20419;-49
2021/01/29 05:28:43;;;;;;;0.70;0.30;;;;;;;8.21;100.00;94800.88;5057783;28;20419;-47
2021/01/29 05:31:32;;;;;;;0.70;0.30;;;;;;;8.11;100.00;94811.56;5057990;28;20484;-47
2021/01/29 05:34:09;;;;;;;0.95;0.30;;;;;;;8.06;100.00;94814.72;5058742;28;20479;-48
2021/01/29 05:36:58;;;;;;;2.20;0.77;;;;;;;7.91;100.00;94821.63;5060423;28;20493;-47
2021/01/29 05:39:34;;;;;;;2.15;0.30;;;;;;;7.74;100.00;94805.13;5059270;28;20403;-46
2021/01/29 05:42:32;;;;;;;2.30;0.30;;;;;;;7.74;100.00;94801.66;5069827;28;20473;-50
2021/01/29 05:45:28;;;;;;;2.40;0.30;;;;;;;7.54;100.00;94804.69;5044748;28;20468;-46
2021/01/29 05:48:21;;;;;;;1.30;0.30;;;;;;;7.55;100.00;94782.72;5062846;28;20808;-47
2021/01/29 05:51:02;;;;;;;1.40;0.30;;;;;;;7.50;100.00;94784.19;5074695;28;20680;-44
2021/01/29 05:53:39;;;;;;;0.82;0.30;;;;;;;7.60;100.00;94769.91;5075026;28;20436;-52
2021/01/29 05:56:10;;;;;;;0.65;0.20;;;;;;;7.56;100.00;94771.22;5076893;28;20438;-52
2021/01/29 05:59:12;;;;;;;0.40;0.20;;;;;;;7.58;100.00;94765.81;5068916;28;20458;-46
2021/01/29 06:02:09;;;;;;;1.20;0.30;;;;;;;7.60;100.00;94758.59;5064966;28;20439;-45
2021/01/29 06:05:04;;;;;;;2.10;0.30;;;;;;;7.52;100.00;94741.06;5078014;28;20479;-50
2021/01/29 06:07:59;;;;;;;0.80;0.30;;;;;;;7.57;100.00;94761.53;5064456;28;20412;-49
2021/01/29 06:10:40;;;;;;;1.13;0.30;;;;;;;7.47;100.00;94732.91;4990516;28;20519;-46
2021/01/29 06:13:44;;;;;;;0.77;0.28;;;;;;;7.44;100.00;94738.47;5068609;28;20422;-46
2021/01/29 06:16:36;;;;;;;0.75;0.30;;;;;;;7.41;100.00;94723.09;5058794;28;20444;-45
2021/01/29 06:19:22;;;;;;;0.50;0.30;;;;;;;7.35;100.00;94721.94;5072464;28;20460;-45
2021/01/29 06:22:02;;;;;;;1.52;0.30;;;;;;;7.46;100.00;94706.84;5048057;28;20417;-46
2021/01/29 06:24:56;;;;;;;0.82;0.22;;;;;;;7.37;100.00;94701.63;5047364;28;20488;-45
2021/01/29 06:27:36;;;;;;;0.80;0.30;;;;;;;7.37;100.00;94688.50;5065999;28;20835;-47
2021/01/29 06:30:17;;;;;;;1.42;0.25;;;;;;;7.34;100.00;94686.22;5046034;28;20421;-45
2021/01/29 06:33:05;;;;;;;0.57;0.20;;;;;;;7.35;100.00;94687.84;5075129;28;20412;-48
2021/01/29 06:35:55;;;;;;;1.15;0.30;;;;;;;7.30;100.00;94679.69;5051067;28;20404;-45
2021/01/29 06:39:28;;;;;;;0.70;0.20;;;;;;;7.34;100.00;94675.75;5063812;28;20540;-45
2021/01/29 06:42:27;;;;;;;0.70;0.25;;;;;;;7.40;100.00;94676.03;4978972;28;20868;-48
2021/01/29 06:45:12;;;;;;;1.27;0.38;;;;;;;7.42;100.00;94659.16;5069686;28;20419;-45
2021/01/29 06:47:57;;;;;;;0.98;0.38;;;;;;;7.36;100.00;94665.91;5078111;28;20439;-45
2021/01/29 06:50:31;;;;;;;1.48;0.40;;;;;;;7.33;100.00;94654.94;5061672;28;20461;-47
2021/01/29 06:53:14;;;;;;;2.10;0.40;;;;;;;7.31;100.00;94649.84;5048561;28;20415;-45
2021/01/29 06:55:52;;;;;;;2.25;0.30;;;;;;;7.21;100.00;94645.78;5054900;28;20425;-47
2021/01/29 06:58:37;;;;;;;1.60;0.40;;;;;;;7.19;100.00;94635.50;5062341;28;20479;-47
2021/01/29 07:01:29;;;;;;;1.10;0.28;;;;;;;7.06;100.00;94630.78;5072615;28;20910;-45
2021/01/29 07:04:29;;;;;;;1.80;0.40;;;;;;;7.00;100.00;94625.38;5067569;28;20757;-47
2021/01/29 07:07:03;;;;;;;1.13;0.40;;;;;;;7.05;100.00;94630.91;5077773;28;20401;-44
2021/01/29 07:09:49;;;;;;;2.28;0.40;;;;;;;7.07;100.00;94640.25;5059760;28;20423;-45
2021/01/29 07:12:27;;;;;;;1.50;0.30;;;;;;;7.04;100.00;94639.78;5077864;28;20998;-49
2021/01/29 07:15:03;;;;;;;1.65;0.40;;;;;;;7.01;100.00;94638.31;5078085;28;20477;-46
2021/01/29 07:17:43;;;;;;;1.45;0.40;;;;;;;7.11;100.00;94638.13;5075834;28;20470;-49
2021/01/29 07:20:32;;;;;;;0.70;0.50;;;;;;;7.16;100.00;94646.31;5068055;28;20407;-45
2021/01/29 07:23:42;;;;;;;2.45;0.80;;;;;;;7.16;100.00;94630.59;5045502;28;20419;-46
2021/01/29 07:26:22;;;;;;;1.50;0.40;;;;;;;7.27;100.00;94643.31;5068216;28;20420;-45
2021/01/29 07:29:03;;;;;;;0.98;0.40;;;;;;;7.25;100.00;94632.16;5061006;28;20456;-48
2021/01/29 07:31:42;;;;;;;1.88;0.50;;;;;;;7.22;100.00;94634.31;5073474;28;20460;-45
2021/01/29 07:34:21;;;;;;;1.20;0.40;;;;;;;7.48;100.00;94628.81;5057493;28;20686;-45
2021/01/29 07:37:41;;;;;;;0.68;0.40;;;;;;;7.51;100.00;94638.97;5066444;28;20460;-45
2021/01/29 07:40:17;;;;;;;1.02;0.40;;;;;;;7.60;100.00;94625.66;5037483;28;20472;-45
2021/01/29 07:43:13;;;;;;;0.87;0.40;;;;;;;7.70;100.00;94628.03;5071907;28;20914;-54
2021/01/29 07:45:49;;;;;;;2.33;0.40;;;;;;;7.76;100.00;94619.50;5078102;28;20581;-45
2021/01/29 07:48:55;;;;;;;1.42;0.35;;;;;;;7.94;100.00;94618.41;5070258;28;20908;-48
2021/01/29 07:51:29;;;;;;;2.15;0.40;;;;;;;8.02;100.00;94616.56;5073203;28;20904;-45
2021/01/29 07:54:11;;;;;;;1.03;0.47;;;;;;;8.15;100.00;94615.97;5080885;28;20408;-45
2021/01/29 07:56:48;;;;;;;0.63;0.30;;;;;;;8.09;100.00;94621.94;5072733;28;20412;-44
2021/01/29 07:59:26;;;;;;;0.80;0.28;;;;;;;8.24;100.00;94607.03;5056273;28;20415;-45
2021/01/29 08:01:59;;;;;;;0.77;0.30;;;;;;;8.17;100.00;94607.94;5067639;28;20457;-45
2021/01/29 08:04:38;;;;;;;1.02;0.30;;;;;;;8.29;100.00;94604.72;5074215;28;21137;-48
2021/01/29 08:07:14;;;;;;;1.73;0.30;;;;;;;8.43;100.00;94612.81;5074675;28;20927;-50
2021/01/29 08:09:43;;;;;;;0.30;0.20;;;;;;;8.37;100.00;94626.66;5050186;28;20452;-47
2021/01/29 08:12:12;;;;;;;0.50;0.30;;;;;;;8.36;100.00;94628.44;5070200;28;20982;-44
2021/01/29 08:14:57;;;;;;;0.80;0.30;;;;;;;8.35;100.00;94636.50;5064121;28;20456;-46
2021/01/29 08:17:54;;;;;;;0.80;0.20;;;;;;;8.56;100.00;94613.03;5070020;28;20460;-44
2021/01/29 08:20:32;;;;;;;0.20;0.20;;;;;;;8.66;100.00;94612.81;5041092;28;21009;-46
2021/01/29 08:23:09;;;;;;;0.20;0.20;;;;;;;8.70;100.00;94637.72;5075593;28;20469;-45
2021/01/29 08:26:03;;;;;;;0.30;0.20;;;;;;;8.79;100.00;94613.81;5049674;28;21084;-44
2021/01/29 08:28:51;;;;;;;0.68;0.20;;;;;;;8.92;100.00;94621.09;5037981;28;20453;-45
2021/01/29 08:31:42;;;;;;;0.40;0.20;;;;;;;9.12;100.00;94624.03;5041844;28;21108;-45
2021/01/29 08:34:55;;;;;;;0.20;0.20;;;;;;;9.29;96.77;94616.78;5061638;28;20753;-51
2021/01/29 08:37:36;;;;;;;0.25;0.20;;;;;;;9.43;96.10;94612.50;5073261;28;20918;-49
2021/01/29 08:40:11;;;;;;;0.10;0.10;;;;;;;9.46;93.00;94615.59;5075723;28;20407;-44
2021/01/29 08:42:49;;;;;;;0.30;0.15;;;;;;;9.53;91.48;94581.44;5075677;28;20407;-45
2021/01/29 08:45:26;;;;;;;0.38;0.17;;;;;;;9.57;92.48;94606.41;5067078;28;20442;-47
2021/01/29 08:48:13;;;;;;;0.50;0.20;;;;;;;9.44;91.43;94598.34;5075500;28;20945;-45
2021/01/29 08:50:50;;;;;;;0.20;0.20;;;;;;;9.55;90.23;94602.31;5069178;28;20751;-49
2021/01/29 08:53:47;;;;;;;0.10;0.10;;;;;;;9.38;90.18;94610.41;5074352;28;20501;-45
2021/01/29 08:56:19;;;;;;;0.40;0.20;;;;;;;9.39;90.17;94617.28;5075919;28;20401;-45
2021/01/29 08:58:51;;;;;;;2.45;0.70;;;;;;;9.46;88.71;94628.72;5047109;28;20413;-45
2021/01/29 09:01:25;;;;;;;0.60;0.40;;;;;;;9.40;87.83;94628.66;5072113;28;20417;-47
2021/01/29 09:03:59;;;;;;;0.68;0.20;;;;;;;9.34;87.62;94619.66;5078883;28;20546;-51
2021/01/29 09:06:28;;;;;;;0.40;0.20;;;;;;;9.28;87.08;94623.81;5072104;28;20410;-45
2021/01/29 09:08:59;;;;;;;0.60;0.20;;;;;;;9.24;87.34;94642.78;5073519;28;20774;-47
2021/01/29 09:11:34;;;;;;;0.40;0.10;;;;;;;9.25;86.26;94639.16;5069077;28;20406;-48
2021/01/29 09:14:05;;;;;;;0.80;0.20;;;;;;;9.31;85.74;94646.31;5074667;28;20400;-44
2021/01/29 09:16:34;;;;;;;0.50;0.20;;;;;;;9.24;85.88;94669.88;5069712;28;20980;-44
2021/01/29 09:19:04;;;;;;;0.68;0.20;;;;;;;9.24;85.21;94675.16;5082822;28;20451;-45
2021/01/29 09:21:38;;;;;;;0.15;0.10;;;;;;;9.17;84.59;94662.91;5068256;28;20435;-44
2021/01/29 09:24:09;;;;;;;0.30;0.20;;;;;;;9.19;84.93;94674.88;5079814;28;20753;-49
2021/01/29 09:26:40;;;;;;;0.35;0.20;;;;;;;9.14;85.00;94697.44;5066180;28;20418;-48
2021/01/29 09:29:15;;;;;;;0.55;0.20;;;;;;;9.18;86.01;94677.69;5068150;28;20892;-44
2021/01/29 09:31:42;;;;;;;0.40;0.20;;;;;;;9.07;86.61;94686.03;5058521;28;20460;-47
2021/01/29 09:34:17;;;;;;;0.60;0.20;;;;;;;9.11;87.61;94682.84;5066000;28;20491;-44
2021/01/29 09:36:49;;;;;;;0.30;0.20;;;;;;;9.21;87.14;94687.84;5071939;28;20410;-50
2021/01/29 09:39:39;;;;;;;0.10;0.10;;;;;;;9.19;87.99;94692.50;5077215;28;20993;-48
2021/01/29 09:42:09;;;;;;;0.52;0.25;;;;;;;9.38;87.49;94696.38;5071302;28;20419;-47
2021/01/29 09:44:40;;;;;;;0.32;0.20;;;;;;;9.38;86.64;94693.75;5076745;28;20416;-46
2021/01/29 09:47:10;;;;;;;0.25;0.20;;;;;;;9.55;87.17;94697.84;5046315;28;20475;-45
2021/01/29 09:49:41;;;;;;;0.77;0.25;;;;;;;9.45;86.85;94690.22;5082329;28;20422;-44
2021/01/29 09:52:16;;;;;;;0.67;0.30;;;;;;;9.73;85.29;94687.75;5066085;28;20417;-48
2021/01/29 09:54:48;;;;;;;0.20;0.10;;;;;;;9.83;85.03;94686.66;5084539;28;20410;-45
2021/01/29 09:57:19;;;;;;;0.40;0.15;;;;;;;9.84;84.57;94683.03;5067699;28;20414;-45
2021/01/29 09:59:56;;;;;;;0.40;0.20;;;;;;;9.90;85.25;94688.38;5067025;28;20898;-51
2021/01/29 10:02:29;;;;;;;0.55;0.20;;;;;;;9.77;84.73;94695.28;5072995;28;20418;-45
2021/01/29 10:05:04;;;;;;;0.35;0.20;;;;;;;9.84;83.88;94685.66;5062923;28;20459;-48
2021/01/29 10:07:34;;;;;;;0.60;0.20;;;;;;;9.89;85.80;94704.38;5070963;28;20885;-47
2021/01/29 10:10:06;;;;;;;0.35;0.22;;;;;;;9.83;84.93;94708.53;5081243;28;20498;-50
2021/01/29 10:12:35;;;;;;;0.13;0.10;;;;;;;9.86;85.50;94702.91;5076998;28;20892;-46
2021/01/29 10:15:05;;;;;;;0.30;0.20;;;;;;;10.03;84.22;94707.97;5067247;28;20405;-45
2021/01/29 10:17:35;;;;;;;1.00;0.30;;;;;;;10.16;85.13;94700.25;5076572;28;22228;-45
2021/01/29 10:20:06;;;;;;;0.30;0.20;;;;;;;9.94;84.38;94702.81;5080324;28;20470;-45
2021/01/29 10:22:56;;;;;;;0.25;0.20;;;;;;;10.02;84.93;94711.63;5052452;28;20440;-46
2021/01/29 10:25:31;;;;;;;0.63;0.20;;;;;;;9.99;84.38;94673.31;5076519;28;20414;-45
2021/01/29 10:28:22;;;;;;;0.70;0.20;;;;;;;10.31;84.35;94703.66;5061653;28;20738;-50
2021/01/29 10:30:58;;;;;;;0.50;0.10;;;;;;;10.25;83.31;94700.94;5040501;28;20411;-47
2021/01/29 10:33:28;;;;;;;0.60;0.20;;;;;;;10.30;83.02;94712.59;5075638;28;20959;-46
2021/01/29 10:35:58;;;;;;;0.30;0.20;;;;;;;10.40;82.15;94697.28;5073696;28;20738;-46
2021/01/29 10:38:33;;;;;;;0.23;0.20;;;;;;;10.64;83.11;94690.84;5067057;28;20416;-46
2021/01/29 10:41:08;;;;;;;0.28;0.20;;;;;;;10.57;85.15;94687.31;5080050;28;20410;-45
2021/01/29 10:43:43;;;;;;;0.90;0.20;;;;;;;10.36;85.36;94690.75;5067567;28;20903;-45
2021/01/29 10:46:20;;;;;;;0.47;0.20;;;;;;;10.19;82.18;94698.03;5062653;28;20411;-47
2021/01/29 10:48:52;;;;;;;0.57;0.20;;;;;;;10.37;83.90;94696.84;5076067;28;20773;-49
2021/01/29 10:51:31;;;;;;;0.40;0.20;;;;;;;10.38;82.38;94688.75;5075086;28;20505;-48
2021/01/29 10:53:59;;;;;;;0.60;0.22;;;;;;;10.66;84.20;94696.72;5056520;28;20406;-48
2021/01/29 10:56:29;;;;;;;0.40;0.20;;;;;;;10.65;81.84;94691.66;5099218;22;20414;-54
2021/01/29 10:58:59;;;;;;;0.25;0.20;;;;;;;10.82;83.00;94692.22;5042233;28;20401;-58
2021/01/29 11:01:33;;;;;;;2.00;0.20;;;;;;;10.79;80.22;94684.69;5065107;28;20428;-57
2021/01/29 11:04:06;;;;;;;0.75;0.35;;;;;;;10.84;79.49;94696.31;5066703;28;20419;-56
2021/01/29 11:06:44;;;;;;;0.60;0.20;;;;;;;10.78;79.30;94704.16;5057597;28;20462;-53
2021/01/29 11:09:18;;;;;;;0.70;0.20;;;;;;;10.77;80.39;94686.69;5061874;28;20423;-57
2021/01/29 11:11:49;;;;;;;0.55;0.10;;;;;;;10.77;80.31;94694.59;5067851;28;20420;-59
2021/01/29 11:14:22;;;;;;;0.25;0.20;;;;;;;11.01;80.92;94715.31;5084845;28;20434;-59
2021/01/29 11:16:54;;;;;;;0.38;0.20;;;;;;;10.84;79.19;94700.72;5083543;28;20403;-56
2021/01/29 11:19:23;;;;;;;0.20;0.10;;;;;;;11.15;78.47;94692.50;5087044;28;20472;-59
2021/01/29 11:22:04;;;;;;;1.40;0.30;;;;;;;11.10;80.21;94716.78;5081330;28;20411;-59
2021/01/29 11:24:36;;;;;;;0.80;0.30;;;;;;;11.01;80.21;94710.03;5083880;28;20962;-55
2021/01/29 11:27:09;;;;;;;0.40;0.30;;;;;;;11.05;77.52;94708.66;5083738;28;20442;-58
2021/01/29 11:29:40;;;;;;;0.30;0.10;;;;;;;11.05;78.40;94713.09;5080282;28;20946;-58
2021/01/29 11:32:33;;;;;;;0.45;0.20;;;;;;;10.91;78.76;94688.44;5073403;28;20414;-58
2021/01/29 11:35:05;;;;;;;;;;;;;;;10.86;79.95;94733.00;5065248;28;20412;-59
2021/01/29 11:37:35;;;;;;;;;;;;;;;10.86;78.17;94677.63;5074568;28;20405;-58
2021/01/29 11:40:05;;;;;;;;;;;;;;;10.74;77.47;94706.34;5084332;28;20019;-58
2021/01/29 11:42:33;;;;;;;;;;;;;;;10.73;77.77;94706.53;5071943;28;20378;-57
2021/01/29 11:45:02;;;;;;;;;;;;;;;10.73;78.36;94707.31;5082616;28;20380;-59
2021/01/29 11:47:34;;;;;;;;;;;;;;;10.62;80.18;94698.09;5082967;28;19920;-56
2021/01/29 11:50:03;;;;;;;;;;;;;;;11.00;78.45;94697.03;5076258;28;20390;-58
2021/01/29 11:52:32;;;;;;;;;;;;;;;11.25;75.83;94686.84;5086876;28;19959;-56
2021/01/29 11:55:05;;;;;;;;;;;;;;;11.53;76.77;94681.59;5068219;28;20011;-58
2021/01/29 11:57:34;;;;;;;;;;;;;;;11.37;74.31;94695.88;5083601;28;19927;-59
2021/01/29 12:00:04;;;;;;;;;;;;;;;11.52;77.34;94695.78;5088907;28;20004;-57
2021/01/29 12:02:31;;;;;;;;;;;;;;;11.08;78.03;94699.50;5079886;28;19920;-59
2021/01/29 12:05:04;;;;;;;;;;;;;;;11.44;76.36;94674.81;5086595;28;19924;-60
2021/01/29 12:07:31;;;;;;;;;;;;;;;11.56;74.87;94666.19;5081873;28;19928;-59
2021/01/29 12:10:00;;;;;;;;;;;;;;;10.96;75.20;94654.41;5086455;28;20406;-58
2021/01/29 12:12:28;;;;;;;;;;;;;;;10.83;76.34;94670.09;5087122;28;19919;-59
2021/01/29 12:14:59;;;;;;;;;;;;;;;10.80;77.05;94691.56;5088796;28;19920;-59
2021/01/29 12:17:27;;;;;;;;;;;;;;;10.87;78.33;94676.63;5081265;28;19924;-59
2021/01/29 12:19:57;;;;;;;;;;;;;;;11.06;78.16;94707.63;5084228;28;19919;-59
2021/01/29 12:22:24;;;;;;;;;;;;;;;11.25;76.59;94690.34;5085993;28;19924;-60
2021/01/29 12:24:54;;;;;;;;;;;;;;;10.94;76.14;94682.78;5084900;28;19966;-60
2021/01/29 12:27:22;;;;;;;;;;;;;;;10.63;74.42;94660.22;5082786;28;19973;-60
2021/01/29 12:29:51;;;;;;;;;;;;;;;10.80;76.24;94675.75;5085819;28;20099;-58
2021/01/29 12:32:42;;;;;;;;;;;;;;;10.83;76.94;94680.66;5080676;28;19920;-59
2021/01/29 12:35:10;;;;;;;;;;;;;;;10.69;77.63;94706.91;5086443;28;19963;-59
2021/01/29 12:37:38;;;;;;;;;;;;;;;10.58;77.77;94694.22;5080752;28;20010;-58
2021/01/29 12:40:06;;;;;;;;;;;;;;;10.54;76.90;94687.69;5081880;28;19919;-58
2021/01/29 12:42:44;;;;;;;;;;;;;;;10.72;78.16;94713.63;5072957;28;19920;-61
2021/01/29 12:45:13;;;;;;;;;;;;;;;10.77;78.09;94716.53;5084347;28;20012;-59